Time;durP1;ratioP1;P1;durP2;ratioP2;P2;SDS_P1;SDS_P2;PMS_P1;PMS_P2;Temp;Humidity;BMP_temperature;BMP_pressure;BME280_temperature;BME280_humidity;BME280_pressure;Samples;Min_cycle;Max_cycle;Signal;HPM_P1;HPM_P2
2022/01/27 00:02:00;;;;;;;17.67;6.47;;;;;;;-2.79;100.00;99156.56;5151710;27;20089;-51
2022/01/27 00:04:34;;;;;;;14.05;6.25;;;;;;;-2.72;100.00;99149.00;5152186;27;20047;-51
2022/01/27 00:07:00;;;;;;;;;;;;;;;-2.78;100.00;99134.81;5152176;27;20051;-52
2022/01/27 00:09:42;;;;;;;14.02;5.85;;;;;;;-2.82;100.00;99135.66;5152084;27;19922;-52
2022/01/27 00:12:09;;;;;;;13.95;5.88;;;;;;;-2.80;100.00;99130.81;5151589;27;20046;-52
2022/01/27 00:14:45;;;;;;;10.20;5.53;;;;;;;-2.79;100.00;99127.84;5151229;27;20054;-52
2022/01/27 00:17:14;;;;;;;8.82;5.03;;;;;;;-2.85;100.00;99119.03;5151611;27;20074;-51
2022/01/27 00:19:40;;;;;;;10.52;4.88;;;;;;;-2.80;100.00;99114.69;5151699;27;20047;-51
2022/01/27 00:22:06;;;;;;;13.68;4.68;;;;;;;-2.76;100.00;99113.88;5151502;27;20165;-50
2022/01/27 00:24:33;;;;;;;8.60;5.18;;;;;;;-2.67;100.00;99112.19;5151656;27;20158;-50
2022/01/27 00:26:59;;;;;;;9.68;5.05;;;;;;;-2.70;100.00;99111.94;5151577;27;20043;-50
2022/01/27 00:29:25;;;;;;;16.08;5.65;;;;;;;-2.64;100.00;99105.47;5151497;27;20057;-55
2022/01/27 00:31:52;;;;;;;10.75;4.88;;;;;;;-2.61;100.00;99102.22;5151716;27;20417;-51
2022/01/27 00:34:19;;;;;;;14.82;5.80;;;;;;;-2.58;100.00;99090.94;5151462;27;20050;-51
2022/01/27 00:36:45;;;;;;;16.17;5.35;;;;;;;-2.49;100.00;99085.78;5151485;27;20058;-52
2022/01/27 00:39:11;;;;;;;12.98;4.55;;;;;;;-2.52;100.00;99076.41;5151412;27;20102;-52
2022/01/27 00:41:37;;;;;;;8.15;5.15;;;;;;;-2.47;100.00;99070.97;5151481;27;20051;-53
2022/01/27 00:44:04;;;;;;;10.55;4.80;;;;;;;-2.39;100.00;99056.16;5151187;27;20405;-51
2022/01/27 00:46:32;;;;;;;12.57;5.05;;;;;;;-2.39;100.00;99056.16;5151627;27;20137;-52
2022/01/27 00:48:59;;;;;;;10.60;4.40;;;;;;;-2.37;100.00;99052.13;5151394;27;20103;-51
2022/01/27 00:51:29;;;;;;;12.55;5.35;;;;;;;-2.34;100.00;99047.25;5151232;27;20055;-53
2022/01/27 00:54:03;;;;;;;8.75;4.30;;;;;;;-2.39;100.00;99040.84;5151185;27;20513;-53
2022/01/27 00:56:37;;;;;;;8.43;4.82;;;;;;;-2.40;100.00;99027.69;5151036;27;20137;-52
2022/01/27 00:59:20;;;;;;;9.43;4.63;;;;;;;-2.32;100.00;99015.56;5151375;27;20074;-49
2022/01/27 01:01:53;;;;;;;10.88;4.95;;;;;;;-2.38;100.00;99010.22;5151166;27;20134;-54
2022/01/27 01:04:27;;;;;;;9.60;4.70;;;;;;;-2.30;100.00;99013.38;5151012;27;20103;-51
2022/01/27 01:06:54;;;;;;;8.88;4.53;;;;;;;-2.25;100.00;99006.09;5150906;27;20058;-50
2022/01/27 01:10:05;;;;;;;9.93;4.90;;;;;;;-2.37;100.00;99006.50;5150681;27;20085;-52
2022/01/27 01:13:07;;;;;;;9.77;4.53;;;;;;;-2.33;100.00;98998.66;5150902;27;20058;-53
2022/01/27 01:15:18;;;;;;;12.15;5.28;;;;;;;-2.28;100.00;98982.47;5150138;27;20063;-53
2022/01/27 01:17:56;;;;;;;7.97;4.75;;;;;;;-2.21;100.00;98972.19;5150751;27;20061;-50
2022/01/27 01:20:34;;;;;;;9.57;4.68;;;;;;;-2.21;100.00;98971.41;5150771;27;20420;-52
2022/01/27 01:31:27;;;;;;;;;;;;;;;-2.31;100.00;98947.34;5151319;27;20069;-49
2022/01/27 01:33:59;;;;;;;13.35;5.07;;;;;;;-2.26;100.00;98932.00;5151172;27;20344;-49
2022/01/27 01:36:35;;;;;;;11.25;4.75;;;;;;;-2.19;100.00;98924.38;5150486;27;20085;-50
2022/01/27 01:39:02;;;;;;;14.30;5.70;;;;;;;-2.19;100.00;98918.22;5150850;27;20058;-51
2022/01/27 01:41:28;;;;;;;12.70;5.15;;;;;;;-2.14;100.00;98915.47;5150452;27;20095;-51
2022/01/27 01:43:54;;;;;;;10.73;4.97;;;;;;;-2.17;100.00;98916.03;5150402;27;20061;-49
2022/01/27 01:46:20;;;;;;;9.18;5.03;;;;;;;-2.14;100.00;98907.41;5150157;27;20053;-49
2022/01/27 01:48:47;;;;;;;10.50;5.65;;;;;;;-2.13;100.00;98912.50;5152260;27;20159;-53
2022/01/27 01:51:23;;;;;;;8.45;4.50;;;;;;;-2.00;100.00;98916.38;5153790;27;20091;-53
2022/01/27 01:53:50;;;;;;;10.80;5.10;;;;;;;-2.00;100.00;98899.44;5153964;27;20095;-51
2022/01/27 01:56:17;;;;;;;10.63;5.38;;;;;;;-2.05;100.00;98905.69;5153813;27;20141;-51
2022/01/27 01:58:43;;;;;;;14.05;5.35;;;;;;;-2.04;100.00;98904.59;5153847;27;20051;-51
2022/01/27 02:01:09;;;;;;;12.98;5.10;;;;;;;-2.02;100.00;98896.25;5154033;27;20047;-51
2022/01/27 02:03:36;;;;;;;10.40;5.13;;;;;;;-2.03;100.00;98890.09;5153716;27;20097;-52
2022/01/27 02:06:02;;;;;;;13.35;4.95;;;;;;;-2.01;100.00;98887.09;5153492;27;20066;-52
2022/01/27 02:08:40;;;;;;;12.43;5.05;;;;;;;-2.00;100.00;98886.81;5153610;27;20501;-50
2022/01/27 02:19:25;;;;;;;10.95;4.93;;;;;;;-1.85;100.00;98879.63;5153936;27;20134;-54
2022/01/27 02:21:53;;;;;;;15.93;5.93;;;;;;;-1.77;100.00;98870.91;5153655;27;20047;-53
2022/01/27 02:24:21;;;;;;;11.52;5.55;;;;;;;-1.83;100.00;98883.66;5153704;27;20054;-49
2022/01/27 02:26:49;;;;;;;14.18;4.80;;;;;;;-1.81;100.00;98880.66;5153231;27;20047;-53
2022/01/27 02:29:16;;;;;;;10.75;5.22;;;;;;;-1.78;100.00;98870.13;5153658;27;20051;-54
2022/01/27 02:31:43;;;;;;;14.25;5.72;;;;;;;-1.82;100.00;98866.41;5153287;27;20482;-51
2022/01/27 02:34:09;;;;;;;11.60;5.85;;;;;;;-1.80;100.00;98866.13;5153371;27;20062;-51
2022/01/27 02:36:36;;;;;;;11.15;5.43;;;;;;;-1.72;100.00;98863.59;5153160;27;20086;-50
2022/01/27 02:39:04;;;;;;;11.60;5.75;;;;;;;-1.76;100.00;98859.88;5153018;27;20049;-51
2022/01/27 02:41:35;;;;;;;11.07;5.43;;;;;;;-1.77;100.00;98858.28;5153165;27;20050;-50
2022/01/27 02:44:02;;;;;;;10.48;5.30;;;;;;;-1.83;100.00;98858.63;5153073;27;20059;-49
2022/01/27 02:46:34;;;;;;;11.27;5.18;;;;;;;-1.81;100.00;98859.16;5153101;27;20495;-50
2022/01/27 02:49:01;;;;;;;11.25;5.32;;;;;;;-1.73;100.00;98848.56;5152893;27;20051;-51
2022/01/27 02:51:27;;;;;;;11.88;5.40;;;;;;;-1.76;100.00;98845.66;5153178;27;20078;-50
2022/01/27 02:53:56;;;;;;;14.27;5.95;;;;;;;-1.73;100.00;98855.81;5152888;27;20142;-52
2022/01/27 02:56:23;;;;;;;11.40;5.35;;;;;;;-1.68;100.00;98843.09;5152762;27;20052;-51
2022/01/27 02:58:49;;;;;;;12.15;5.40;;;;;;;-1.64;100.00;98850.56;5152681;27;20107;-50
2022/01/27 03:01:19;;;;;;;12.88;5.90;;;;;;;-1.68;100.00;98845.78;5152968;27;20050;-53
2022/01/27 03:03:46;;;;;;;12.32;6.10;;;;;;;-1.59;100.00;98842.44;5152854;27;20531;-51
2022/01/27 03:06:12;;;;;;;11.82;6.10;;;;;;;-1.64;100.00;98837.94;5152573;27;20520;-51
2022/01/27 03:08:38;;;;;;;11.95;6.20;;;;;;;-1.57;100.00;98832.97;5152860;27;20054;-50
2022/01/27 03:11:11;;;;;;;16.10;6.20;;;;;;;-1.60;100.00;98832.75;5152678;27;20051;-51
2022/01/27 03:13:38;;;;;;;12.93;6.70;;;;;;;-1.60;100.00;98822.84;5152215;27;20422;-50
2022/01/27 03:16:07;;;;;;;12.18;7.00;;;;;;;-1.49;100.00;98820.78;5152499;27;20046;-50
2022/01/27 03:18:34;;;;;;;18.08;7.47;;;;;;;-1.54;100.00;98818.94;5153243;27;20399;-49
2022/01/27 03:21:00;;;;;;;19.88;7.40;;;;;;;-1.48;100.00;98823.16;5152819;27;20042;-49
2022/01/27 03:23:27;;;;;;;16.95;8.05;;;;;;;-1.41;100.00;98822.78;5152881;27;20047;-50
2022/01/27 03:25:53;;;;;;;15.13;7.63;;;;;;;-1.36;100.00;98820.03;5152694;27;20088;-54
2022/01/27 03:28:24;;;;;;;13.60;8.93;;;;;;;-1.39;100.00;98817.13;5152386;27;20054;-54
2022/01/27 03:30:51;;;;;;;25.30;10.50;;;;;;;-1.42;100.00;98810.44;5152604;27;20069;-51
2022/01/27 03:33:17;;;;;;;23.23;10.88;;;;;;;-1.42;100.00;98807.75;5152222;27;20046;-52
2022/01/27 03:35:43;;;;;;;23.83;9.95;;;;;;;-1.37;100.00;98801.47;5152395;27;20141;-52
2022/01/27 03:38:10;;;;;;;26.98;11.57;;;;;;;-1.29;100.00;98793.53;5152391;27;20102;-52
2022/01/27 03:40:36;;;;;;;26.90;11.43;;;;;;;-1.25;100.00;98793.75;5152687;27;20420;-54
2022/01/27 03:43:05;;;;;;;25.60;10.82;;;;;;;-1.16;100.00;98783.91;5152552;27;20050;-53
2022/01/27 03:45:31;;;;;;;29.58;11.02;;;;;;;-1.10;100.00;98779.22;5152787;27;20145;-52
2022/01/27 03:47:59;;;;;;;24.02;10.55;;;;;;;-1.10;100.00;98784.59;5152363;27;20548;-51
2022/01/27 03:50:25;;;;;;;26.70;9.70;;;;;;;-1.11;100.00;98780.31;5152444;27;20055;-54
2022/01/27 03:52:52;;;;;;;25.48;11.18;;;;;;;-1.08;100.00;98775.13;5152334;27;20081;-50
2022/01/27 03:55:18;;;;;;;17.90;9.93;;;;;;;-1.03;100.00;98780.44;5152299;27;20368;-52
2022/01/27 03:57:44;;;;;;;22.77;10.60;;;;;;;-1.01;100.00;98777.44;5152337;27;20051;-50
2022/01/27 04:00:11;;;;;;;25.85;9.55;;;;;;;-1.06;100.00;98782.94;5151825;27;20058;-51
2022/01/27 04:02:41;;;;;;;19.67;9.60;;;;;;;-1.00;100.00;98779.84;5152030;27;20047;-52
2022/01/27 04:05:11;;;;;;;23.73;10.13;;;;;;;-0.97;100.00;98768.50;5151866;27;20080;-51
2022/01/27 04:07:38;;;;;;;14.65;8.50;;;;;;;-0.92;100.00;98764.91;5151838;27;20055;-50
2022/01/27 04:10:05;;;;;;;18.40;9.23;;;;;;;-0.95;100.00;98763.59;5151618;27;20050;-52
2022/01/27 04:12:31;;;;;;;23.10;11.00;;;;;;;-0.86;100.00;98755.63;5151041;27;20398;-50
2022/01/27 04:14:57;;;;;;;24.55;10.43;;;;;;;-0.86;100.00;98763.69;5151116;27;20520;-50
2022/01/27 04:17:23;;;;;;;21.63;10.00;;;;;;;-0.84;100.00;98756.09;5151830;27;20053;-52
2022/01/27 04:19:49;;;;;;;25.10;10.65;;;;;;;-0.79;100.00;98752.53;5151767;27;20042;-50
2022/01/27 04:22:16;;;;;;;28.98;10.40;;;;;;;-0.74;100.00;98747.81;5151654;27;20505;-50
2022/01/27 04:24:43;;;;;;;21.73;11.15;;;;;;;-0.69;100.00;98741.56;5152031;27;20081;-52
2022/01/27 04:27:17;;;;;;;27.67;11.02;;;;;;;-0.70;100.00;98750.72;5151632;27;20158;-50
2022/01/27 04:29:43;;;;;;;;;;;;;;;-0.64;100.00;98743.34;5152064;27;20043;-52
2022/01/27 04:32:11;;;;;;;20.35;9.55;;;;;;;-0.61;100.00;98740.84;5151288;27;19929;-51
2022/01/27 04:34:41;;;;;;;25.65;11.45;;;;;;;-0.58;100.00;98745.63;5151537;27;20078;-52
2022/01/27 04:37:10;;;;;;;23.33;11.18;;;;;;;-0.58;100.00;98737.53;5151280;27;20072;-51
2022/01/27 04:39:43;;;;;;;27.08;11.15;;;;;;;-0.53;100.00;98739.34;5151215;27;20088;-53
2022/01/27 04:42:14;;;;;;;26.10;10.90;;;;;;;-0.51;100.00;98735.25;5151230;27;20046;-50
2022/01/27 04:44:48;;;;;;;24.95;10.63;;;;;;;-0.43;100.00;98732.94;5150887;27;20513;-54
2022/01/27 04:47:19;;;;;;;23.02;10.63;;;;;;;-0.42;100.00;98729.16;5151317;27;20099;-53
2022/01/27 04:49:46;;;;;;;23.73;11.55;;;;;;;-0.42;100.00;98729.16;5151181;27;20089;-53
2022/01/27 04:52:13;;;;;;;27.20;12.25;;;;;;;-0.43;100.00;98724.84;5151108;27;20075;-52
2022/01/27 04:54:51;;;;;;;26.83;12.57;;;;;;;-0.41;100.00;98723.44;5150808;27;20374;-51
2022/01/27 04:57:17;;;;;;;29.08;11.98;;;;;;;-0.41;100.00;98707.28;5151266;27;20512;-51
2022/01/27 04:59:45;;;;;;;34.63;12.93;;;;;;;-0.40;100.00;98687.34;5151087;27;20420;-50
2022/01/27 05:02:18;;;;;;;33.65;11.88;;;;;;;-0.34;100.00;98688.81;5151007;27;20057;-50
2022/01/27 05:04:49;;;;;;;42.17;13.73;;;;;;;-0.29;100.00;98677.16;5150820;27;20047;-51
2022/01/27 05:07:15;;;;;;;40.13;14.98;;;;;;;-0.26;100.00;98669.25;5151015;27;20054;-54
2022/01/27 05:09:50;;;;;;;41.85;17.05;;;;;;;-0.25;100.00;98670.81;5150672;27;20394;-54
2022/01/27 05:12:27;;;;;;;52.03;17.98;;;;;;;-0.18;100.00;98662.31;5150609;27;20055;-53
2022/01/27 05:14:54;;;;;;;58.85;19.73;;;;;;;-0.14;100.00;98659.81;5148504;27;20061;-50
2022/01/27 05:17:20;;;;;;;52.30;21.63;;;;;;;-0.14;100.00;98654.41;5150867;27;20147;-53
2022/01/27 05:19:47;;;;;;;70.65;23.80;;;;;;;-0.05;100.00;98644.50;5151112;27;20082;-55
2022/01/27 05:22:14;;;;;;;78.70;25.63;;;;;;;-0.01;100.00;98646.25;5150732;27;20050;-53
2022/01/27 05:24:41;;;;;;;73.63;27.42;;;;;;;0.01;100.00;98653.28;5153871;27;20062;-50
2022/01/27 05:27:07;;;;;;;76.43;27.05;;;;;;;-0.03;100.00;98645.78;5154111;27;20370;-50
2022/01/27 05:29:34;;;;;;;72.63;24.75;;;;;;;-0.01;100.00;98640.88;5154158;27;20513;-51
2022/01/27 05:32:00;;;;;;;91.40;26.50;;;;;;;0.02;100.00;98636.78;5154058;27;20481;-51
2022/01/27 05:34:26;;;;;;;56.15;21.10;;;;;;;0.06;100.00;98632.34;5154225;27;20111;-53
2022/01/27 05:36:52;;;;;;;52.20;20.63;;;;;;;0.05;100.00;98621.91;5154344;27;20042;-50
2022/01/27 05:39:18;;;;;;;50.10;19.33;;;;;;;0.07;100.00;98616.97;5154160;27;20050;-54
2022/01/27 05:41:45;;;;;;;53.13;18.33;;;;;;;0.10;100.00;98611.78;5154197;27;20046;-51
2022/01/27 05:44:12;;;;;;;42.88;17.67;;;;;;;0.12;100.00;98611.47;5153729;27;20046;-52
2022/01/27 05:46:38;;;;;;;60.35;18.25;;;;;;;0.16;100.00;98596.25;5153576;27;20042;-50
2022/01/27 05:49:04;;;;;;;43.90;18.35;;;;;;;0.15;100.00;98600.06;5153943;27;20050;-53
2022/01/27 05:51:30;;;;;;;40.60;16.23;;;;;;;0.18;100.00;98602.16;5153925;27;20042;-53
2022/01/27 05:53:57;;;;;;;36.90;17.67;;;;;;;0.25;100.00;98590.91;5153940;27;20050;-58
2022/01/27 05:56:23;;;;;;;38.05;15.98;;;;;;;0.35;100.00;98596.03;5153858;27;20048;-53
2022/01/27 05:58:50;;;;;;;36.88;16.48;;;;;;;0.47;100.00;98580.06;5153543;27;20047;-52
2022/01/27 06:01:16;;;;;;;48.35;17.10;;;;;;;0.50;100.00;98582.16;5153264;27;20079;-53
2022/01/27 06:03:42;;;;;;;42.70;15.48;;;;;;;0.59;100.00;98579.47;5153481;27;20545;-54
2022/01/27 06:06:09;;;;;;;40.25;16.38;;;;;;;0.63;100.00;98581.22;5154235;27;20046;-54
2022/01/27 06:08:35;;;;;;;40.63;17.60;;;;;;;0.62;100.00;98593.09;5153292;27;20082;-54
2022/01/27 06:11:02;;;;;;;31.65;15.27;;;;;;;0.65;100.00;98597.09;5153332;27;20502;-54
2022/01/27 06:13:28;;;;;;;32.13;14.15;;;;;;;0.73;100.00;98598.22;5152957;27;20094;-55
2022/01/27 06:15:55;;;;;;;33.13;14.55;;;;;;;0.83;100.00;98604.09;5152515;27;20047;-55
2022/01/27 06:18:21;;;;;;;46.00;14.85;;;;;;;0.87;100.00;98613.19;5173902;27;20049;-54
2022/01/27 06:20:47;;;;;;;32.20;14.95;;;;;;;0.88;100.00;98620.16;5173949;27;20485;-55
2022/01/27 06:23:14;;;;;;;29.08;13.35;;;;;;;0.92;100.00;98621.13;5170794;27;20042;-54
2022/01/27 06:25:41;;;;;;;38.08;15.18;;;;;;;0.93;100.00;98619.22;5153051;27;20051;-54
2022/01/27 06:28:07;;;;;;;37.70;14.27;;;;;;;0.94;100.00;98635.09;5152879;27;20049;-54
2022/01/27 06:30:34;;;;;;;40.58;14.10;;;;;;;0.99;100.00;98631.47;5153211;27;20055;-55
2022/01/27 06:33:02;;;;;;;30.77;12.80;;;;;;;1.08;100.00;98632.28;5174096;27;20114;-54
2022/01/27 06:35:28;;;;;;;37.33;14.77;;;;;;;1.22;100.00;98623.25;5173518;27;20063;-55
2022/01/27 06:37:54;;;;;;;27.02;12.77;;;;;;;1.41;100.00;98626.44;5173745;27;20424;-55
2022/01/27 06:40:21;;;;;;;34.42;13.98;;;;;;;1.47;100.00;98627.09;5173701;27;20046;-52
2022/01/27 06:42:47;;;;;;;31.40;12.88;;;;;;;1.55;100.00;98632.47;5154685;27;20106;-54
2022/01/27 06:45:13;;;;;;;34.30;13.40;;;;;;;1.61;100.00;98644.72;5152785;27;20174;-56
2022/01/27 06:47:40;;;;;;;26.00;12.68;;;;;;;1.72;100.00;98650.59;5152643;27;20099;-57
2022/01/27 06:50:08;;;;;;;23.60;12.55;;;;;;;1.68;100.00;98665.06;5157639;27;20049;-57
2022/01/27 06:52:34;;;;;;;30.35;13.23;;;;;;;1.65;100.00;98672.69;5173607;27;20109;-56
2022/01/27 06:55:02;;;;;;;32.40;13.13;;;;;;;1.63;100.00;98669.53;5167900;27;20086;-57
2022/01/27 06:57:29;;;;;;;31.75;13.07;;;;;;;1.70;100.00;98679.03;5161422;27;20043;-56
2022/01/27 06:59:55;;;;;;;31.65;14.65;;;;;;;1.70;100.00;98671.75;5168177;27;20627;-56
2022/01/27 07:02:21;;;;;;;33.78;14.05;;;;;;;1.67;100.00;98661.56;5152555;27;20099;-56
2022/01/27 07:04:47;;;;;;;29.75;13.85;;;;;;;1.66;100.00;98665.38;5160070;27;20054;-57
2022/01/27 07:07:14;;;;;;;30.10;14.32;;;;;;;1.69;100.00;98663.94;5173839;27;20050;-58
2022/01/27 07:09:40;;;;;;;33.08;13.43;;;;;;;1.72;100.00;98642.47;5172707;27;20074;-59
2022/01/27 07:12:08;;;;;;;30.40;12.27;;;;;;;1.76;100.00;98646.13;5153114;27;20073;-57
2022/01/27 07:14:34;;;;;;;18.10;8.65;;;;;;;1.89;100.00;98652.47;5151901;27;20054;-56
2022/01/27 07:17:01;;;;;;;16.73;9.15;;;;;;;1.91;100.00;98644.84;5153896;27;20521;-56
2022/01/27 07:19:27;;;;;;;23.00;9.30;;;;;;;1.91;100.00;98644.84;5154929;27;20090;-59
2022/01/27 07:21:53;;;;;;;29.45;9.25;;;;;;;1.94;100.00;98654.25;5155417;27;20156;-58
2022/01/27 07:24:20;;;;;;;25.70;10.23;;;;;;;1.95;100.00;98655.81;5172609;27;20057;-58
2022/01/27 07:26:47;;;;;;;21.80;10.00;;;;;;;1.98;100.00;98655.97;5172072;27;20141;-57
2022/01/27 07:29:13;;;;;;;24.30;9.30;;;;;;;2.07;100.00;98642.47;5172807;27;20551;-57
2022/01/27 07:31:40;;;;;;;24.38;9.90;;;;;;;2.19;100.00;98634.44;5172154;27;20053;-57
2022/01/27 07:34:06;;;;;;;21.63;10.02;;;;;;;2.21;100.00;98640.34;5171990;27;20056;-57
2022/01/27 07:36:32;;;;;;;20.40;10.07;;;;;;;2.24;100.00;98649.72;5151797;27;20090;-59
2022/01/27 07:39:00;;;;;;;23.25;10.30;;;;;;;2.22;100.00;98644.63;5152135;27;20078;-59
2022/01/27 07:41:27;;;;;;;20.75;10.52;;;;;;;2.29;100.00;98638.72;5151600;27;20047;-57
2022/01/27 07:43:54;;;;;;;26.58;10.43;;;;;;;2.29;100.00;98646.84;5151843;27;20089;-55
2022/01/27 07:46:20;;;;;;;25.25;10.32;;;;;;;2.32;100.00;98655.09;5150629;27;20513;-56
2022/01/27 07:48:46;;;;;;;24.20;11.35;;;;;;;2.36;100.00;98647.91;5151669;27;20055;-57
2022/01/27 07:51:13;;;;;;;20.20;10.57;;;;;;;2.40;100.00;98641.88;5151310;27;20053;-56
2022/01/27 07:53:42;;;;;;;25.40;10.25;;;;;;;2.51;100.00;98640.41;5151792;27;20051;-58
2022/01/27 07:56:08;;;;;;;20.67;10.85;;;;;;;2.53;100.00;98647.09;5150622;27;20051;-58
2022/01/27 07:58:38;;;;;;;18.50;9.65;;;;;;;2.52;100.00;98645.50;5151355;27;20052;-58
2022/01/27 08:01:07;;;;;;;21.63;10.05;;;;;;;2.52;100.00;98650.91;5151175;27;20042;-56
2022/01/27 08:03:34;;;;;;;28.02;10.90;;;;;;;2.45;100.00;98647.91;5151624;27;20473;-58
2022/01/27 08:06:00;;;;;;;22.23;10.60;;;;;;;2.45;100.00;98650.63;5158677;27;20046;-58
2022/01/27 08:08:27;;;;;;;20.27;9.82;;;;;;;2.45;100.00;98652.53;5172286;27;20050;-54
2022/01/27 08:10:53;;;;;;;21.98;9.85;;;;;;;2.40;100.00;98660.81;5172503;27;20125;-55
2022/01/27 08:13:19;;;;;;;18.55;9.45;;;;;;;2.41;100.00;98654.31;5151599;27;20051;-54
2022/01/27 08:15:46;;;;;;;22.45;10.45;;;;;;;2.42;100.00;98647.75;5151902;27;20580;-55
2022/01/27 08:18:12;;;;;;;20.85;9.55;;;;;;;2.26;100.00;98647.47;5169406;27;20129;-54
2022/01/27 08:20:40;;;;;;;25.73;9.60;;;;;;;2.32;100.00;98638.88;5171621;27;20050;-54
2022/01/27 08:23:07;;;;;;;21.55;9.25;;;;;;;2.35;100.00;98640.16;5153411;27;20050;-55
2022/01/27 08:25:34;;;;;;;24.90;9.85;;;;;;;2.42;100.00;98629.63;5151184;27;20099;-55
2022/01/27 08:28:04;;;;;;;21.45;9.57;;;;;;;2.42;100.00;98626.13;5151352;27;20092;-56
2022/01/27 08:30:38;;;;;;;14.75;7.97;;;;;;;2.51;100.00;98633.09;5151135;27;20046;-55
2022/01/27 08:33:05;;;;;;;20.73;9.27;;;;;;;2.56;100.00;98629.41;5167949;27;20512;-55
2022/01/27 08:35:32;;;;;;;28.73;8.85;;;;;;;2.61;100.00;98633.84;5169888;27;20399;-56
2022/01/27 08:37:58;;;;;;;25.23;9.90;;;;;;;2.63;100.00;98634.31;5165701;27;20141;-54
2022/01/27 08:40:25;;;;;;;18.27;8.80;;;;;;;2.61;100.00;98637.34;5151018;27;20046;-53
2022/01/27 08:42:51;;;;;;;20.40;9.88;;;;;;;2.62;100.00;98647.03;5151028;27;20055;-53
2022/01/27 08:45:20;;;;;;;18.83;8.40;;;;;;;2.65;100.00;98651.03;5150915;27;20042;-55
2022/01/27 08:47:47;;;;;;;15.68;8.73;;;;;;;2.66;100.00;98658.81;5154696;27;20099;-56
2022/01/27 08:50:15;;;;;;;26.30;10.07;;;;;;;2.65;100.00;98654.53;5171838;27;20053;-56
2022/01/27 08:52:42;;;;;;;28.33;10.25;;;;;;;2.62;100.00;98660.56;5171756;27;20069;-52
2022/01/27 08:55:09;;;;;;;18.88;9.10;;;;;;;2.59;100.00;98653.91;5165167;27;20155;-57
2022/01/27 08:57:36;;;;;;;23.75;8.45;;;;;;;2.67;100.00;98651.50;5154524;27;20062;-56
2022/01/27 09:00:05;;;;;;;16.65;8.57;;;;;;;2.71;100.00;98657.84;5175706;27;20046;-56
2022/01/27 09:02:31;;;;;;;24.20;10.00;;;;;;;2.78;100.00;98653.50;5174390;27;20050;-56
2022/01/27 09:04:58;;;;;;;22.30;8.82;;;;;;;2.84;100.00;98659.53;5168869;27;20050;-56
2022/01/27 09:07:25;;;;;;;18.40;8.20;;;;;;;2.91;100.00;98665.25;5174996;27;20046;-56
2022/01/27 09:09:52;;;;;;;21.73;8.50;;;;;;;2.76;100.00;98658.44;5154405;27;20053;-54
2022/01/27 09:12:18;;;;;;;18.63;8.70;;;;;;;2.82;100.00;98678.81;5166785;27;20145;-57
2022/01/27 09:14:45;;;;;;;17.77;8.65;;;;;;;2.87;100.00;98675.13;5174622;27;20812;-53
2022/01/27 09:17:13;;;;;;;22.35;8.88;;;;;;;2.78;100.00;98679.78;5172906;27;20050;-54
2022/01/27 09:19:41;;;;;;;17.83;8.23;;;;;;;2.76;100.00;98677.38;5154312;27;20053;-51
2022/01/27 09:22:12;;;;;;;15.93;8.70;;;;;;;2.82;100.00;98676.09;5154212;27;20046;-53
2022/01/27 09:24:41;;;;;;;20.83;8.63;;;;;;;2.88;100.00;98686.75;5154167;27;20128;-53
2022/01/27 09:27:10;;;;;;;17.05;8.02;;;;;;;2.93;100.00;98681.16;5163629;27;20046;-54
2022/01/27 09:29:36;;;;;;;21.75;9.10;;;;;;;2.90;100.00;98677.19;5172343;27;20057;-56
2022/01/27 09:32:03;;;;;;;18.08;8.50;;;;;;;2.81;100.00;98681.84;5174928;27;20071;-54
2022/01/27 09:34:30;;;;;;;16.20;8.45;;;;;;;2.80;100.00;98680.28;5174792;27;20160;-55
2022/01/27 09:36:57;;;;;;;20.70;8.60;;;;;;;2.81;100.00;98679.94;5174473;27;20046;-56
2022/01/27 09:39:24;;;;;;;12.30;7.90;;;;;;;2.79;100.00;98665.13;5155876;27;20053;-54
2022/01/27 09:41:54;;;;;;;22.77;8.20;;;;;;;2.82;100.00;98661.78;5153576;27;20142;-56
2022/01/27 09:44:24;;;;;;;18.20;7.03;;;;;;;2.78;100.00;98656.22;5153934;27;20055;-52
2022/01/27 09:46:52;;;;;;;12.82;7.35;;;;;;;2.79;100.00;98660.50;5153821;27;20043;-52
2022/01/27 09:49:29;;;;;;;18.42;7.53;;;;;;;2.81;100.00;98652.84;5173223;27;20053;-51
2022/01/27 09:51:56;;;;;;;18.95;7.45;;;;;;;2.87;100.00;98647.28;5173496;27;20083;-54
2022/01/27 09:54:22;;;;;;;12.57;7.18;;;;;;;2.89;100.00;98661.25;5154274;27;20055;-55
2022/01/27 09:56:49;;;;;;;17.42;7.90;;;;;;;2.85;100.00;98647.59;5154771;27;20125;-53
2022/01/27 09:59:21;;;;;;;15.68;7.72;;;;;;;2.78;100.00;98660.84;5153554;27;20493;-55
2022/01/27 10:01:58;;;;;;;21.30;8.50;;;;;;;2.77;100.00;98653.84;5153558;27;20516;-55
2022/01/27 10:04:45;;;;;;;16.27;7.90;;;;;;;2.82;100.00;98632.78;5153417;27;20046;-56
2022/01/27 10:07:14;;;;;;;16.42;8.68;;;;;;;2.76;100.00;98634.06;5169622;27;20048;-56
2022/01/27 10:09:40;;;;;;;26.65;9.65;;;;;;;2.69;100.00;98633.81;5173411;27;20049;-55
2022/01/27 10:12:07;;;;;;;20.25;8.38;;;;;;;2.62;100.00;98625.41;5174173;27;20397;-55
2022/01/27 10:14:37;;;;;;;22.70;8.80;;;;;;;2.71;100.00;98614.53;5173745;27;20098;-56
2022/01/27 10:17:08;;;;;;;12.80;8.35;;;;;;;2.76;100.00;98608.94;5159647;27;20050;-55
2022/01/27 10:19:36;;;;;;;15.05;7.32;;;;;;;2.80;100.00;98610.69;5153175;27;20051;-56
2022/01/27 10:22:07;;;;;;;13.93;7.93;;;;;;;2.87;100.00;98604.75;5154614;27;20054;-57
2022/01/27 10:24:34;;;;;;;15.98;8.57;;;;;;;2.93;100.00;98616.16;5152958;27;20402;-56
2022/01/27 10:27:19;;;;;;;16.90;8.18;;;;;;;2.95;100.00;98608.50;5153069;27;20047;-55
2022/01/27 10:30:03;;;;;;;15.63;8.18;;;;;;;2.89;100.00;98605.19;5152765;27;20127;-57
2022/01/27 10:32:40;;;;;;;12.38;7.88;;;;;;;2.94;100.00;98594.19;5152771;27;20043;-53
2022/01/27 10:35:08;;;;;;;14.77;7.18;;;;;;;2.97;100.00;98593.53;5152985;27;20432;-55
2022/01/27 10:37:57;;;;;;;15.48;8.30;;;;;;;3.05;100.00;98598.09;5169369;27;20426;-56
2022/01/27 10:40:27;;;;;;;12.18;6.75;;;;;;;3.03;100.00;98615.78;5173660;27;20050;-57
2022/01/27 10:43:09;;;;;;;17.15;7.68;;;;;;;2.99;100.00;98604.81;5173951;27;20111;-54
2022/01/27 10:45:38;;;;;;;14.07;7.70;;;;;;;3.02;100.00;98606.06;5173203;27;20552;-53
2022/01/27 10:48:12;;;;;;;19.00;7.93;;;;;;;2.95;100.00;98611.22;5151572;27;20092;-56
2022/01/27 10:50:51;;;;;;;15.65;7.20;;;;;;;2.92;100.00;98609.16;5152590;27;20493;-53
2022/01/27 10:53:19;;;;;;;14.48;7.78;;;;;;;2.89;100.00;98607.91;5152953;27;20057;-55
2022/01/27 10:56:06;;;;;;;12.95;7.22;;;;;;;2.96;100.00;98608.19;5156562;27;20154;-55
2022/01/27 10:58:34;;;;;;;15.68;7.22;;;;;;;2.99;100.00;98598.59;5170002;27;20605;-56
2022/01/27 11:01:03;;;;;;;15.30;7.13;;;;;;;2.98;100.00;98595.13;5173279;27;20078;-57
2022/01/27 11:03:30;;;;;;;10.85;6.20;;;;;;;2.96;100.00;98597.34;5173260;27;20058;-58
2022/01/27 11:06:09;;;;;;;11.63;7.03;;;;;;;2.96;100.00;98585.72;5167891;27;20097;-57
2022/01/27 11:08:36;;;;;;;14.10;7.00;;;;;;;2.93;100.00;98580.97;5152735;27;20137;-55
2022/01/27 11:11:03;;;;;;;21.27;7.78;;;;;;;2.95;100.00;98587.63;5152450;27;20089;-55
2022/01/27 11:13:30;;;;;;;11.77;6.82;;;;;;;2.94;100.00;98580.66;5152902;27;20054;-56
2022/01/27 11:15:56;;;;;;;10.38;5.97;;;;;;;2.91;100.00;98578.59;5156935;27;20142;-56
2022/01/27 11:18:25;;;;;;;9.50;6.18;;;;;;;2.86;100.00;98572.56;5173476;27;20054;-57
2022/01/27 11:20:59;;;;;;;14.85;7.32;;;;;;;2.85;100.00;98562.88;5171975;27;20881;-61
2022/01/27 11:24:03;;;;;;;10.52;6.47;;;;;;;2.88;100.00;98554.09;5173068;27;20058;-55
2022/01/27 11:26:31;;;;;;;13.13;7.05;;;;;;;2.83;100.00;98553.19;5163218;27;20050;-56
2022/01/27 11:28:58;;;;;;;11.52;6.97;;;;;;;2.86;100.00;98548.19;5152380;27;20492;-56
2022/01/27 11:32:16;;;;;;;11.85;7.05;;;;;;;2.84;100.00;98537.72;5152089;27;20050;-57
2022/01/27 11:34:51;;;;;;;11.63;6.80;;;;;;;2.77;100.00;98530.13;5103776;27;20082;-56
2022/01/27 11:37:30;;;;;;;11.45;6.68;;;;;;;2.71;100.00;98528.72;5168274;27;20074;-55
2022/01/27 11:40:02;;;;;;;14.60;7.57;;;;;;;2.75;100.00;98505.28;5171024;27;20050;-57
2022/01/27 11:43:01;;;;;;;17.08;7.97;;;;;;;2.84;100.00;98491.69;5172978;27;20114;-55
2022/01/27 11:45:32;;;;;;;13.18;6.60;;;;;;;2.81;100.00;98495.84;5172580;27;20049;-55